GOT weather

Gothenburg-Landvetter Airport
Gothenburg, Västra Götalands län, Sweden

Public forecast

Using degrees Celsius for public forecast. Weather courtesy of forecast.io.

Current aviation weather report (METAR) for Gothenburg-Landvetter Airport

Retrieved 2019/11/20 13:20 UTC (0 seconds ago):

ESGG 201320Z 06003KT 9999 SCT046 05/04 Q1021 R03/29//95

Aviation forecast (TAF) for Gothenburg-Landvetter Airport

Retrieved 2019/11/20 12:33 UTC (38 minutes ago):

TAF ESGG 201130Z 2012/2112 12004KT 9999 BKN009 PROB40 2012/2018 BKN010 TEMPO 2018/2024 4000 RADZ TEMPO 2100/2106 2500 BR BKN004